createdAt,value
2023-05-19T07:30:13.317Z,13.50
2023-05-19T07:33:28.257Z,13.87
2023-05-19T12:10:17.669Z,14.29
2023-05-19T13:02:05.322Z,14.94
2023-05-19T13:05:06.938Z,14.81
2023-05-19T13:08:09.180Z,14.74
2023-05-19T13:11:10.686Z,14.62
2023-05-19T13:14:12.517Z,14.63
2023-05-19T13:17:14.113Z,14.49
2023-05-19T13:20:15.546Z,14.40
2023-05-19T13:23:17.454Z,14.28
2023-05-19T13:26:19.024Z,14.61
2023-05-19T13:29:20.561Z,14.43
2023-05-19T13:32:21.984Z,14.55
2023-05-19T13:35:23.388Z,14.53
2023-05-19T13:38:24.972Z,14.68
2023-05-19T13:41:26.604Z,14.50
2023-05-19T13:44:28.188Z,14.37
2023-05-19T13:47:29.832Z,14.49
2023-05-19T13:50:31.332Z,14.45
2023-05-19T13:53:34.572Z,14.53
2023-05-19T13:56:36.376Z,14.82
2023-05-19T13:59:49.048Z,14.82
2023-05-19T14:03:00.357Z,14.94
2023-05-19T14:06:01.993Z,14.98
2023-05-19T14:09:03.379Z,15.01
2023-05-19T14:12:06.055Z,15.11
2023-05-19T14:15:09.078Z,14.96
2023-05-19T14:18:11.478Z,14.83
2023-05-19T14:21:12.897Z,14.66
2023-05-19T14:24:14.333Z,14.70
2023-05-19T14:27:16.039Z,14.77
2023-05-19T14:30:17.552Z,14.83
2023-05-19T14:33:19.492Z,14.99
2023-05-19T14:36:21.078Z,15.02
2023-05-19T14:39:22.546Z,15.16
2023-05-19T14:42:24.057Z,15.15
2023-05-19T14:45:25.450Z,15.31
2023-05-19T14:48:26.841Z,15.02
2023-05-19T14:51:28.368Z,15.14
2023-05-19T14:54:29.761Z,15.07
2023-05-19T14:57:31.343Z,15.18
2023-05-19T15:00:32.908Z,15.07
2023-05-19T15:03:34.491Z,14.98
2023-05-19T15:06:35.911Z,14.78
2023-05-19T15:09:37.449Z,14.74
2023-05-19T15:12:38.936Z,14.91
2023-05-19T15:15:40.389Z,14.89
2023-05-19T15:18:41.824Z,14.86
2023-05-19T15:21:44.568Z,14.91
2023-05-19T15:24:45.958Z,14.81
2023-05-19T15:27:47.606Z,14.74
2023-05-19T15:30:49.162Z,14.82
2023-05-19T15:33:50.585Z,14.86
2023-05-19T15:36:52.049Z,15.00
2023-05-19T15:39:54.918Z,15.05
2023-05-19T15:42:56.346Z,14.94
2023-05-19T15:45:57.804Z,14.84
2023-05-19T15:48:59.401Z,14.90
2023-05-19T15:52:00.838Z,14.82
2023-05-19T15:55:02.241Z,14.89
2023-05-19T15:58:03.806Z,14.76
2023-05-19T16:01:05.394Z,14.70
2023-05-19T16:04:06.819Z,14.52
2023-05-19T16:07:08.344Z,14.38
2023-05-19T16:10:09.833Z,14.38
2023-05-19T16:13:11.269Z,14.37
2023-05-19T16:16:12.706Z,14.37
2023-05-19T16:19:14.232Z,14.35
2023-05-19T16:22:15.733Z,14.40
2023-05-19T16:25:17.129Z,14.25
2023-05-19T16:28:18.585Z,14.45
2023-05-19T16:31:20.175Z,14.32
2023-05-19T16:34:21.689Z,14.29
2023-05-19T16:37:23.120Z,14.28
2023-05-19T16:40:24.538Z,14.31
2023-05-19T16:43:26.295Z,14.35
2023-05-19T16:46:29.229Z,14.24
2023-05-19T16:49:33.573Z,14.37
2023-05-19T16:52:35.098Z,14.55
2023-05-19T16:55:36.526Z,14.20
2023-05-19T16:58:37.900Z,14.42
2023-05-19T17:01:39.409Z,14.40
2023-05-19T17:04:40.849Z,14.29
2023-05-19T17:07:42.250Z,14.18
2023-05-19T17:10:44.807Z,14.13
2023-05-19T17:13:46.929Z,14.10
2023-05-19T17:16:48.618Z,14.20
2023-05-19T17:19:50.155Z,14.13
2023-05-19T17:22:51.675Z,14.21
2023-05-19T17:25:56.174Z,14.27
2023-05-19T17:28:57.821Z,14.22
2023-05-19T17:31:59.314Z,14.04
2023-05-19T17:35:03.082Z,14.01
2023-05-19T17:38:04.569Z,14.00
2023-05-19T17:41:09.813Z,14.00
2023-05-19T17:44:11.316Z,13.99
2023-05-19T17:47:12.757Z,14.14
2023-05-19T17:50:14.194Z,14.27
2023-05-19T17:53:16.227Z,14.14
2023-05-19T17:56:19.641Z,14.04
2023-05-19T17:59:21.219Z,14.04
2023-05-19T18:02:22.762Z,14.02
2023-05-19T18:05:24.467Z,14.02
2023-05-19T18:08:26.145Z,14.01
2023-05-19T18:11:27.718Z,14.03
2023-05-19T18:14:29.156Z,13.99
2023-05-19T18:17:30.724Z,13.78
2023-05-19T18:20:33.946Z,13.70
2023-05-19T18:23:35.803Z,13.53
2023-05-19T18:26:41.685Z,13.64
2023-05-19T18:29:43.135Z,13.56
2023-05-19T18:32:44.573Z,13.52
2023-05-19T18:35:46.217Z,13.47
2023-05-19T18:38:47.966Z,13.63
2023-05-19T18:41:49.719Z,13.60
2023-05-19T18:44:51.291Z,13.60
2023-05-19T18:47:52.977Z,13.42
2023-05-19T18:50:54.409Z,13.34
2023-05-19T18:53:56.116Z,13.33
2023-05-19T18:56:57.591Z,13.21
2023-05-19T18:59:59.009Z,13.13
2023-05-19T19:03:01.789Z,13.10
2023-05-19T19:06:03.303Z,13.07
2023-05-19T19:09:04.847Z,13.03
2023-05-19T19:12:06.801Z,12.94
2023-05-19T19:15:08.450Z,12.81
2023-05-19T19:18:09.982Z,12.83
2023-05-19T19:21:11.435Z,12.71
2023-05-19T19:24:13.813Z,12.85
2023-05-19T19:27:17.606Z,12.78
2023-05-19T19:30:19.025Z,12.76
2023-05-19T19:33:20.503Z,12.65
2023-05-19T19:36:21.911Z,12.44
2023-05-19T19:39:23.291Z,12.33
2023-05-19T19:42:24.726Z,12.26
2023-05-19T19:45:26.163Z,12.22
2023-05-19T19:48:27.921Z,12.14
2023-05-19T19:51:29.465Z,12.13
2023-05-19T19:54:30.898Z,12.03
2023-05-19T19:57:34.334Z,11.97
2023-05-19T20:00:36.060Z,11.94
2023-05-19T20:03:37.707Z,11.79
2023-05-19T20:06:39.448Z,11.68
2023-05-19T20:09:40.849Z,11.61
2023-05-19T20:12:42.348Z,11.45
2023-05-19T20:15:43.951Z,11.58
2023-05-19T20:18:45.415Z,11.55
2023-05-19T20:21:46.859Z,11.41
2023-05-19T20:24:48.347Z,11.02
2023-05-19T20:27:49.800Z,11.15
2023-05-19T20:30:51.655Z,11.04
2023-05-19T20:33:53.218Z,10.85
2023-05-19T20:36:54.917Z,10.84
2023-05-19T20:39:56.371Z,10.81
2023-05-19T20:42:57.801Z,10.82
2023-05-19T20:45:59.839Z,10.84
2023-05-19T20:49:01.330Z,10.78
2023-05-19T20:52:02.744Z,10.81
2023-05-19T20:55:04.211Z,10.82
2023-05-19T20:58:05.729Z,10.73
2023-05-19T21:01:07.658Z,10.63
2023-05-19T21:04:09.149Z,10.69
2023-05-19T21:07:10.667Z,10.72
2023-05-19T21:10:14.378Z,10.49
2023-05-19T21:13:15.950Z,10.55
2023-05-19T21:16:17.356Z,10.57
2023-05-19T21:19:20.571Z,10.52
2023-05-19T21:22:22.058Z,10.45
2023-05-19T21:25:23.533Z,10.67
2023-05-19T21:28:24.929Z,10.67
2023-05-19T21:31:26.379Z,10.55
2023-05-19T21:34:27.850Z,10.50
2023-05-19T21:37:29.298Z,10.55
2023-05-19T21:40:30.882Z,10.58
2023-05-19T21:43:32.287Z,10.56
2023-05-19T21:46:33.753Z,10.56
2023-05-19T21:49:35.263Z,10.51
2023-05-19T21:52:38.204Z,10.48
2023-05-19T21:55:39.682Z,10.39
2023-05-19T21:58:41.046Z,10.43
2023-05-19T22:01:42.599Z,10.37
2023-05-19T22:04:44.784Z,10.40
2023-05-19T22:07:47.501Z,10.35
2023-05-19T22:10:48.960Z,10.36
2023-05-19T22:13:50.442Z,10.14
2023-05-19T22:16:52.144Z,10.04
2023-05-19T22:19:53.562Z,10.13
2023-05-19T22:22:55.046Z,10.21
2023-05-19T22:25:56.467Z,10.25
2023-05-19T22:28:57.881Z,10.18
2023-05-19T22:31:59.419Z,10.20
2023-05-19T22:35:01.020Z,10.23
2023-05-19T22:38:02.417Z,10.14
2023-05-19T22:41:03.906Z,9.98
2023-05-19T22:44:05.501Z,9.92
2023-05-19T22:47:10.142Z,9.91
2023-05-19T22:50:12.234Z,9.79
2023-05-19T22:53:13.633Z,9.76
2023-05-19T22:56:16.082Z,9.74
2023-05-19T22:59:18.087Z,9.83
2023-05-19T23:02:19.781Z,9.85
2023-05-19T23:05:21.206Z,9.74
2023-05-19T23:08:22.620Z,9.73
2023-05-19T23:11:24.039Z,9.67
2023-05-19T23:14:26.056Z,9.66
2023-05-19T23:17:27.615Z,9.58
2023-05-19T23:20:29.044Z,9.66
2023-05-19T23:23:30.451Z,9.64
2023-05-19T23:26:31.858Z,9.47
2023-05-19T23:29:33.239Z,9.51
2023-05-19T23:32:34.616Z,9.53
2023-05-19T23:35:36.325Z,9.56
2023-05-19T23:38:37.907Z,9.53
2023-05-19T23:41:39.321Z,9.55
2023-05-19T23:44:40.908Z,9.52
2023-05-19T23:47:42.324Z,9.54
2023-05-19T23:50:43.978Z,9.56
2023-05-19T23:53:45.573Z,9.60
2023-05-19T23:56:46.963Z,9.60
2023-05-19T23:59:48.505Z,9.56
